createdAt,value
2022-11-05T11:09:36.176Z,19.84
2022-11-05T11:12:05.428Z,19.98
2022-11-05T11:14:32.358Z,20.00
2022-11-05T11:17:27.083Z,19.76
2022-11-05T11:20:18.792Z,19.50
2022-11-05T11:23:15.033Z,19.13
2022-11-05T11:26:03.893Z,18.91
2022-11-05T11:28:58.583Z,19.55
2022-11-05T11:31:31.434Z,19.25
2022-11-05T11:34:11.580Z,19.10
2022-11-05T11:36:50.796Z,19.07
2022-11-05T11:39:25.033Z,19.59
2022-11-05T11:42:02.276Z,20.02
2022-11-05T11:44:34.394Z,19.99
2022-11-05T11:47:12.285Z,19.73
2022-11-05T11:49:46.007Z,19.34
2022-11-05T11:52:34.704Z,19.50
2022-11-05T11:55:21.819Z,19.84
2022-11-05T11:57:52.876Z,19.98
2022-11-05T12:00:23.478Z,20.04
2022-11-05T12:03:22.488Z,20.24
2022-11-05T12:06:01.845Z,20.08
2022-11-05T12:09:25.466Z,20.23
2022-11-05T12:12:14.098Z,19.53
2022-11-05T12:14:58.643Z,19.94
2022-11-05T12:17:34.347Z,19.87
2022-11-05T12:20:38.026Z,20.17
2022-11-05T12:23:04.621Z,19.90
2022-11-05T12:25:49.155Z,20.05
2022-11-05T12:28:57.731Z,20.23
2022-11-05T12:31:44.015Z,20.34
2022-11-05T12:34:37.857Z,20.15
2022-11-05T12:37:35.339Z,20.25
2022-11-05T12:40:20.294Z,20.31
2022-11-05T12:42:52.859Z,20.41
2022-11-05T12:45:47.131Z,20.26
2022-11-05T12:48:27.630Z,20.34
2022-11-05T12:51:30.421Z,20.29
2022-11-05T12:54:26.856Z,20.30
2022-11-05T12:56:58.180Z,20.35
2022-11-05T12:59:29.004Z,20.38
2022-11-05T13:02:06.492Z,20.35
2022-11-05T13:04:50.291Z,20.32
2022-11-05T13:07:32.221Z,20.32
2022-11-05T13:10:17.957Z,20.27
2022-11-05T13:12:49.297Z,20.28
2022-11-05T13:15:24.196Z,20.20
2022-11-05T13:17:58.470Z,20.15
2022-11-05T13:20:28.887Z,20.22
2022-11-05T13:23:26.266Z,20.18
2022-11-05T13:25:59.388Z,20.17
2022-11-05T13:28:41.236Z,20.20
2022-11-05T13:31:18.732Z,19.99
2022-11-05T13:33:49.612Z,19.97
2022-11-05T13:36:59.567Z,19.90
2022-11-05T13:39:31.813Z,19.84
2022-11-05T13:42:27.233Z,19.83
2022-11-05T13:45:18.408Z,19.77
2022-11-05T13:47:53.638Z,19.75
2022-11-05T13:50:42.007Z,19.71
2022-11-05T13:53:56.524Z,19.59
2022-11-05T13:56:47.745Z,19.54
2022-11-05T13:59:36.205Z,19.48
2022-11-05T14:02:13.971Z,19.51
2022-11-05T14:04:48.550Z,19.45
2022-11-05T14:07:26.563Z,19.44
2022-11-05T14:09:59.715Z,19.41
2022-11-05T14:12:35.769Z,19.37
2022-11-05T14:15:30.926Z,19.30
2022-11-05T14:18:18.850Z,19.30
2022-11-05T14:20:58.752Z,19.22
2022-11-05T14:23:25.470Z,19.28
2022-11-05T14:25:56.064Z,19.24
2022-11-05T14:28:34.690Z,19.15
2022-11-05T14:31:02.531Z,19.16
2022-11-05T14:33:29.055Z,19.18
2022-11-05T14:36:35.782Z,18.95
2022-11-05T14:39:26.069Z,18.93
2022-11-05T14:42:03.240Z,18.98
2022-11-05T14:44:35.010Z,18.87
2022-11-05T14:47:18.780Z,18.87
2022-11-05T14:49:53.946Z,18.75
2022-11-05T14:52:21.429Z,18.75
2022-11-05T14:54:55.127Z,18.71
2022-11-05T14:57:43.080Z,18.52
2022-11-05T15:00:34.132Z,18.52
2022-11-05T15:03:04.186Z,18.56
2022-11-05T15:05:53.085Z,18.46
2022-11-05T15:08:37.396Z,18.38
2022-11-05T15:11:14.513Z,18.34
2022-11-05T15:14:02.871Z,18.17
2022-11-05T15:16:42.750Z,18.17
2022-11-05T15:19:32.599Z,18.13
2022-11-05T15:22:03.244Z,18.14
2022-11-05T15:24:34.267Z,18.19
2022-11-05T15:27:18.588Z,18.10
2022-11-05T15:29:45.644Z,18.01
2022-11-05T15:32:18.363Z,18.02
2022-11-05T15:34:53.412Z,17.99
2022-11-05T15:37:25.885Z,18.01
2022-11-05T15:39:54.791Z,18.01
2022-11-05T15:42:26.128Z,18.02
2022-11-05T15:44:57.728Z,17.79
2022-11-05T15:47:34.158Z,17.78
2022-11-05T15:50:03.740Z,17.86
2022-11-05T15:52:42.333Z,17.86
2022-11-05T15:55:09.183Z,17.83
2022-11-05T15:57:40.100Z,17.95
2022-11-05T16:00:16.404Z,17.81
2022-11-05T16:02:43.530Z,17.74
2022-11-05T16:05:13.809Z,17.60
2022-11-05T16:07:45.446Z,17.72
2022-11-05T16:10:25.158Z,17.66
2022-11-05T16:12:51.826Z,17.73
2022-11-05T16:15:25.239Z,17.64
2022-11-05T16:17:58.287Z,17.52
2022-11-05T16:20:30.611Z,17.54
2022-11-05T16:23:00.400Z,17.60
2022-11-05T16:25:38.202Z,17.51
2022-11-05T16:28:18.508Z,17.56
2022-11-05T16:30:58.582Z,17.50
2022-11-05T16:33:27.318Z,17.52
2022-11-05T16:35:53.886Z,17.48
2022-11-05T16:38:21.200Z,17.27
2022-11-05T16:40:52.713Z,16.87
2022-11-05T16:43:24.696Z,17.09
2022-11-05T16:45:57.366Z,17.19
2022-11-05T16:48:24.941Z,17.30
2022-11-05T16:50:51.648Z,17.27
2022-11-05T16:53:19.614Z,17.27
2022-11-05T16:55:46.682Z,17.24
2022-11-05T16:58:22.495Z,16.73
2022-11-05T17:00:51.143Z,16.87
2022-11-05T17:03:17.949Z,16.12
2022-11-05T17:05:44.794Z,16.44
2022-11-05T17:08:11.745Z,16.75
2022-11-05T17:10:38.588Z,17.00
2022-11-05T17:13:05.205Z,17.15
2022-11-05T17:15:36.650Z,17.15
2022-11-05T17:18:15.369Z,17.12
2022-11-05T17:20:47.929Z,16.90
2022-11-05T17:23:17.191Z,17.01
2022-11-05T17:25:47.165Z,17.10
2022-11-05T17:28:15.081Z,17.04
2022-11-05T17:30:43.904Z,17.00
2022-11-05T17:33:12.179Z,16.64
2022-11-05T17:35:40.884Z,16.65
2022-11-05T17:38:08.444Z,16.04
2022-11-05T17:40:36.413Z,16.51
2022-11-05T17:43:03.732Z,16.77
2022-11-05T17:45:30.988Z,16.10
2022-11-05T17:47:57.784Z,15.88
2022-11-05T17:50:24.535Z,16.58
2022-11-05T17:52:51.359Z,16.83
2022-11-05T17:55:18.069Z,16.95
2022-11-05T17:57:47.471Z,16.86
2022-11-05T18:00:17.939Z,16.80
2022-11-05T18:02:46.181Z,16.95
2022-11-05T18:05:13.634Z,16.99
2022-11-05T18:07:40.966Z,17.02
2022-11-05T18:10:07.903Z,17.12
2022-11-05T18:12:36.055Z,17.04
2022-11-05T18:15:03.071Z,16.93
2022-11-05T18:17:29.752Z,16.92
2022-11-05T18:19:56.497Z,16.92
2022-11-05T18:22:23.222Z,16.75
2022-11-05T18:24:50.014Z,16.68
2022-11-05T18:27:16.650Z,16.16
2022-11-05T18:29:43.287Z,16.22
2022-11-05T18:32:10.028Z,16.41
2022-11-05T18:34:36.693Z,16.50
2022-11-05T18:37:03.733Z,16.59
2022-11-05T18:39:30.460Z,16.62
2022-11-05T18:41:57.109Z,16.59
2022-11-05T18:44:24.811Z,16.70
2022-11-05T18:46:58.175Z,16.67
2022-11-05T18:49:26.063Z,16.70
2022-11-05T18:51:52.706Z,16.80
2022-11-05T18:54:20.194Z,16.86
2022-11-05T18:56:46.891Z,16.73
2022-11-05T19:02:05.775Z,16.96
2022-11-05T19:04:32.935Z,16.58
2022-11-05T19:07:04.533Z,16.67
2022-11-05T19:09:39.383Z,16.69
2022-11-05T19:12:13.689Z,16.74
2022-11-05T19:14:47.243Z,16.94
2022-11-05T19:17:14.120Z,16.83
2022-11-05T19:19:41.823Z,16.35
2022-11-05T19:22:08.470Z,15.92
2022-11-05T19:24:35.062Z,16.04
2022-11-05T19:27:02.006Z,16.08
2022-11-05T19:29:28.658Z,16.40
2022-11-05T19:31:55.344Z,16.38
2022-11-05T19:34:21.919Z,16.43
2022-11-05T19:36:48.677Z,16.55
2022-11-05T19:39:15.337Z,16.40
2022-11-05T19:41:42.596Z,16.38
2022-11-05T19:44:09.252Z,16.47
2022-11-05T19:46:35.919Z,16.33
2022-11-05T19:49:03.267Z,16.32
2022-11-05T19:51:32.608Z,16.22
2022-11-05T19:54:01.281Z,16.42
2022-11-05T19:56:30.554Z,16.16
2022-11-05T19:58:58.412Z,16.31
2022-11-05T20:01:27.075Z,16.12
2022-11-05T20:03:56.112Z,15.95
2022-11-05T20:06:28.724Z,16.33
2022-11-05T20:11:48.786Z,16.44
2022-11-05T20:14:16.175Z,16.47
2022-11-05T20:16:43.193Z,16.54
2022-11-05T20:19:13.190Z,16.54
2022-11-05T20:21:40.448Z,16.42
2022-11-05T20:24:08.297Z,16.51
2022-11-05T20:26:35.064Z,16.51
2022-11-05T20:29:01.736Z,16.49
2022-11-05T20:31:28.711Z,16.37
2022-11-05T20:33:55.391Z,16.36
2022-11-05T20:36:24.859Z,16.38
2022-11-05T20:38:55.344Z,16.46
2022-11-05T20:41:22.830Z,16.36
2022-11-05T20:43:49.726Z,15.92
2022-11-05T20:46:19.215Z,16.00
2022-11-05T20:48:45.876Z,16.01
2022-11-05T20:51:24.234Z,16.05
2022-11-05T20:53:55.880Z,16.11
2022-11-05T20:56:25.337Z,16.22
2022-11-05T20:58:52.727Z,16.29
2022-11-05T21:01:19.837Z,16.30
2022-11-05T21:03:47.824Z,16.31
2022-11-05T21:06:15.184Z,16.16
2022-11-05T21:08:42.082Z,16.02
2022-11-05T21:11:10.120Z,16.00
2022-11-05T21:13:36.944Z,16.13
2022-11-05T21:16:07.056Z,16.18
2022-11-05T21:18:35.465Z,16.10
2022-11-05T21:21:18.908Z,16.14
2022-11-05T21:23:45.679Z,16.15
2022-11-05T21:26:14.509Z,15.85
2022-11-05T21:28:42.068Z,16.06
2022-11-05T21:31:09.615Z,15.94
2022-11-05T21:33:36.364Z,15.94
2022-11-05T21:36:08.582Z,16.05
2022-11-05T21:38:35.465Z,16.07
2022-11-05T21:41:03.248Z,16.07
2022-11-05T21:43:29.836Z,16.11
2022-11-05T21:46:01.866Z,16.11
2022-11-05T21:48:28.693Z,16.21
2022-11-05T21:51:14.007Z,16.23
2022-11-05T21:53:59.039Z,15.98
2022-11-05T21:56:45.490Z,15.64
2022-11-05T21:59:33.549Z,15.86
2022-11-05T22:02:03.600Z,15.75
2022-11-05T22:04:32.314Z,15.79
2022-11-05T22:06:59.606Z,15.68
2022-11-05T22:09:26.786Z,15.60
2022-11-05T22:11:54.102Z,15.78
2022-11-05T22:14:21.477Z,15.66
2022-11-05T22:16:48.581Z,15.72
2022-11-05T22:19:15.197Z,15.88
2022-11-05T22:21:42.100Z,15.72
2022-11-05T22:24:09.337Z,15.85
2022-11-05T22:26:36.260Z,15.93
2022-11-05T22:29:02.901Z,16.05
2022-11-05T22:31:35.663Z,16.11
2022-11-05T22:34:04.389Z,15.62
2022-11-05T22:36:31.146Z,15.64
2022-11-05T22:38:57.757Z,15.90
2022-11-05T22:41:24.358Z,15.90
2022-11-05T22:43:51.207Z,15.70
2022-11-05T22:46:21.020Z,15.57
2022-11-05T22:48:48.224Z,15.29
2022-11-05T22:51:18.024Z,15.36
2022-11-05T22:53:44.703Z,15.45
2022-11-05T22:56:14.203Z,15.35
2022-11-05T22:58:41.418Z,15.28
2022-11-05T23:01:11.933Z,15.31
2022-11-05T23:03:40.558Z,15.34
2022-11-05T23:06:31.594Z,15.51
2022-11-05T23:09:17.727Z,15.72
2022-11-05T23:11:48.568Z,15.69
2022-11-05T23:14:15.728Z,15.66
2022-11-05T23:17:02.094Z,15.66
2022-11-05T23:19:47.397Z,15.62
2022-11-05T23:22:36.987Z,15.75
2022-11-05T23:25:05.258Z,15.78
2022-11-05T23:27:37.070Z,15.78
2022-11-05T23:30:07.582Z,15.77
2022-11-05T23:32:34.506Z,15.70
2022-11-05T23:35:01.146Z,15.39
2022-11-05T23:37:49.081Z,15.50
2022-11-05T23:40:24.458Z,15.39
2022-11-05T23:43:09.882Z,15.43
2022-11-05T23:45:59.941Z,15.45
2022-11-05T23:48:33.811Z,15.42
2022-11-05T23:51:03.511Z,15.52
2022-11-05T23:53:32.659Z,15.61
2022-11-05T23:56:10.874Z,15.65
2022-11-05T23:58:38.859Z,15.76
